createdAt,value
2023-04-16T00:01:50.084Z,102013.00
2023-04-16T00:04:17.498Z,102052.00
2023-04-16T00:06:46.038Z,102044.00
2023-04-16T00:09:13.870Z,102035.00
2023-04-16T00:11:41.141Z,102043.00
2023-04-16T00:14:08.319Z,102023.00
2023-04-16T00:16:36.862Z,102065.00
2023-04-16T00:19:07.038Z,102023.00
2023-04-16T00:21:34.676Z,102041.00
2023-04-16T00:24:03.362Z,102034.00
2023-04-16T00:26:30.537Z,102067.00
2023-04-16T00:28:58.052Z,102062.00
2023-04-16T00:31:32.571Z,102065.00
2023-04-16T00:34:04.837Z,102055.00
2023-04-16T00:36:52.555Z,102059.00
2023-04-16T00:39:19.907Z,102059.00
2023-04-16T00:41:49.216Z,102072.00
2023-04-16T00:44:16.453Z,102040.00
2023-04-16T00:46:45.972Z,102060.00
2023-04-16T00:49:15.559Z,102049.00
2023-04-16T00:51:44.977Z,102051.00
2023-04-16T00:54:13.025Z,102065.00
2023-04-16T00:56:40.102Z,102072.00
2023-04-16T00:59:07.969Z,102071.00
2023-04-16T01:01:35.306Z,102059.00
2023-04-16T01:04:02.625Z,102052.00
2023-04-16T01:06:29.771Z,102063.00
2023-04-16T01:08:56.773Z,102065.00
2023-04-16T01:11:24.109Z,102054.00
2023-04-16T01:13:51.098Z,102041.00
2023-04-16T01:16:18.476Z,102051.00
2023-04-16T01:18:48.778Z,102064.00
2023-04-16T01:21:15.786Z,102052.00
2023-04-16T01:23:45.529Z,102066.00
2023-04-16T01:26:12.811Z,102071.00
2023-04-16T01:28:40.490Z,102042.00
2023-04-16T01:31:07.509Z,102060.00
2023-04-16T01:33:34.952Z,102052.00
2023-04-16T01:36:01.967Z,102055.00
2023-04-16T01:38:28.919Z,102067.00
2023-04-16T01:40:57.914Z,102054.00
2023-04-16T01:43:25.320Z,102062.00
2023-04-16T01:45:54.193Z,102054.00
2023-04-16T01:48:21.202Z,102052.00
2023-04-16T01:50:48.668Z,102056.00
2023-04-16T01:53:16.851Z,102066.00
2023-04-16T01:55:43.801Z,102055.00
2023-04-16T01:58:11.012Z,102060.00
2023-04-16T02:00:41.182Z,102063.00
2023-04-16T02:03:08.287Z,102050.00
2023-04-16T02:05:35.917Z,102056.00
2023-04-16T02:08:03.372Z,102049.00
2023-04-16T02:10:30.893Z,102038.00
2023-04-16T02:12:58.619Z,102051.00
2023-04-16T02:15:26.529Z,102044.00
2023-04-16T02:17:57.425Z,102063.00
2023-04-16T02:20:26.342Z,102057.00
2023-04-16T02:22:54.016Z,102030.00
2023-04-16T02:25:21.137Z,102053.00
2023-04-16T02:27:48.573Z,102059.00
2023-04-16T02:30:18.090Z,102064.00
2023-04-16T02:32:46.307Z,102073.00
2023-04-16T02:35:13.590Z,102039.00
2023-04-16T02:37:41.068Z,102052.00
2023-04-16T02:40:08.797Z,102056.00
2023-04-16T02:42:36.013Z,102058.00
2023-04-16T02:45:03.288Z,102057.00
2023-04-16T02:47:30.324Z,102058.00
2023-04-16T02:49:57.295Z,102057.00
2023-04-16T02:52:24.627Z,102054.00
2023-04-16T02:54:51.633Z,102058.00
2023-04-16T02:57:19.579Z,102074.00
2023-04-16T02:59:46.649Z,102058.00
2023-04-16T03:02:15.117Z,102045.00
2023-04-16T03:04:43.122Z,102072.00
2023-04-16T03:07:11.200Z,102077.00
2023-04-16T03:09:38.290Z,102070.00
2023-04-16T03:12:05.591Z,102073.00
2023-04-16T03:14:32.718Z,102083.00
2023-04-16T03:16:59.674Z,102069.00
2023-04-16T03:19:26.765Z,102063.00
2023-04-16T03:21:54.637Z,102054.00
2023-04-16T03:24:21.882Z,102053.00
2023-04-16T03:26:48.888Z,102066.00
2023-04-16T03:29:15.998Z,102062.00
2023-04-16T03:31:43.353Z,102059.00
2023-04-16T03:34:10.907Z,102067.00
2023-04-16T03:36:38.976Z,102092.00
2023-04-16T03:39:07.003Z,102065.00
2023-04-16T03:41:34.177Z,102093.00
2023-04-16T03:44:02.013Z,102079.00
2023-04-16T03:46:31.070Z,102056.00
2023-04-16T03:48:59.114Z,102085.00
2023-04-16T03:51:26.594Z,102087.00
2023-04-16T03:53:54.951Z,102080.00
2023-04-16T03:56:21.902Z,102081.00
2023-04-16T03:58:49.335Z,102092.00
2023-04-16T04:01:20.758Z,102096.00
2023-04-16T04:03:48.529Z,102095.00
2023-04-16T04:06:15.905Z,102089.00
2023-04-16T04:08:43.006Z,102102.00
2023-04-16T04:11:11.055Z,102089.00
2023-04-16T04:13:39.042Z,102109.00
2023-04-16T04:16:06.541Z,102089.00
2023-04-16T04:18:34.097Z,102093.00
2023-04-16T04:21:06.086Z,102106.00
2023-04-16T04:23:35.026Z,102091.00
2023-04-16T04:26:03.944Z,102118.00
2023-04-16T04:28:33.796Z,102096.00
2023-04-16T04:31:01.516Z,102098.00
2023-04-16T04:33:29.191Z,102130.00
2023-04-16T04:35:56.430Z,102115.00
2023-04-16T04:38:25.383Z,102121.00
2023-04-16T04:40:52.923Z,102121.00
2023-04-16T04:43:20.510Z,102113.00
2023-04-16T04:45:49.061Z,102122.00
2023-04-16T04:48:16.790Z,102137.00
2023-04-16T04:50:44.880Z,102134.00
2023-04-16T04:53:12.044Z,102128.00
2023-04-16T04:55:39.355Z,102118.00
2023-04-16T04:58:07.656Z,102135.00
2023-04-16T05:00:37.958Z,102135.00
2023-04-16T05:03:07.024Z,102125.00
2023-04-16T05:05:34.090Z,102132.00
2023-04-16T05:08:01.744Z,102128.00
2023-04-16T05:10:29.442Z,102141.00
2023-04-16T05:12:56.385Z,102157.00
2023-04-16T05:15:28.474Z,102159.00
2023-04-16T05:17:56.566Z,102143.00
2023-04-16T05:20:26.934Z,102160.00
2023-04-16T05:22:55.445Z,102142.00
2023-04-16T05:25:23.278Z,102145.00
2023-04-16T05:27:50.498Z,102153.00
2023-04-16T05:30:18.642Z,102165.00
2023-04-16T05:32:46.053Z,102148.00
2023-04-16T05:35:13.930Z,102180.00
2023-04-16T05:37:43.100Z,102175.00
2023-04-16T05:40:12.464Z,102170.00
2023-04-16T05:42:40.503Z,102137.00
2023-04-16T05:45:08.533Z,102163.00
2023-04-16T05:47:35.869Z,102159.00
2023-04-16T05:50:04.024Z,102174.00
2023-04-16T05:52:31.075Z,102163.00
2023-04-16T05:55:03.914Z,102182.00
2023-04-16T05:57:33.078Z,102193.00
2023-04-16T06:00:00.293Z,102181.00
2023-04-16T06:02:30.750Z,102177.00
2023-04-16T06:04:57.908Z,102184.00
2023-04-16T06:07:25.014Z,102198.00
2023-04-16T06:09:52.153Z,102174.00
2023-04-16T06:12:19.169Z,102165.00
2023-04-16T06:14:46.311Z,102178.00
2023-04-16T06:17:13.419Z,102186.00
2023-04-16T06:19:44.158Z,102185.00
2023-04-16T06:22:11.393Z,102194.00
2023-04-16T06:24:38.482Z,102195.00
2023-04-16T06:27:06.560Z,102200.00
2023-04-16T06:29:40.679Z,102201.00
2023-04-16T06:32:13.713Z,102220.00
2023-04-16T06:34:44.374Z,102200.00
2023-04-16T06:37:13.551Z,102201.00
2023-04-16T06:39:43.040Z,102212.00
2023-04-16T06:42:10.505Z,102222.00
2023-04-16T06:44:37.794Z,102212.00
2023-04-16T06:47:04.989Z,102203.00
2023-04-16T06:49:33.123Z,102207.00
2023-04-16T06:52:00.592Z,102200.00
2023-04-16T06:54:27.942Z,102212.00
2023-04-16T06:56:55.177Z,102212.00
2023-04-16T06:59:22.520Z,102215.00
2023-04-16T07:01:49.733Z,102204.00
2023-04-16T07:04:21.904Z,102207.00
2023-04-16T07:06:49.022Z,102220.00
2023-04-16T07:09:17.998Z,102210.00
2023-04-16T07:11:49.887Z,102215.00
2023-04-16T07:14:17.706Z,102220.00
2023-04-16T07:16:45.044Z,102231.00
2023-04-16T07:19:12.143Z,102236.00
2023-04-16T07:21:44.185Z,102227.00
2023-04-16T07:24:14.147Z,102244.00
2023-04-16T07:26:41.454Z,102243.00
2023-04-16T07:29:08.728Z,102243.00
2023-04-16T07:31:35.978Z,102240.00
2023-04-16T07:34:04.160Z,102259.00
2023-04-16T07:36:32.583Z,102241.00
2023-04-16T07:39:00.440Z,102250.00
2023-04-16T07:41:29.583Z,102244.00
2023-04-16T07:43:58.062Z,102259.00
2023-04-16T07:46:28.249Z,102263.00
2023-04-16T07:48:58.368Z,102255.00
2023-04-16T07:51:26.417Z,102278.00
2023-04-16T07:53:54.392Z,102269.00
2023-04-16T07:56:21.404Z,102268.00
2023-04-16T07:58:49.029Z,102259.00
2023-04-16T08:01:17.734Z,102249.00
2023-04-16T08:03:45.667Z,102270.00
2023-04-16T08:06:12.984Z,102258.00
2023-04-16T08:08:40.632Z,102292.00
2023-04-16T08:11:07.889Z,102261.00
2023-04-16T08:13:35.327Z,102273.00
2023-04-16T08:16:02.541Z,102273.00
2023-04-16T08:18:29.673Z,102273.00
2023-04-16T08:20:59.705Z,102284.00
2023-04-16T08:23:27.181Z,102282.00
2023-04-16T08:25:58.157Z,102302.00
2023-04-16T08:28:26.208Z,102301.00
2023-04-16T08:30:53.516Z,102304.00
2023-04-16T08:33:21.532Z,102297.00
2023-04-16T08:35:48.539Z,102294.00
2023-04-16T08:38:15.502Z,102312.00
2023-04-16T08:40:43.042Z,102301.00
2023-04-16T08:43:13.871Z,102284.00
2023-04-16T08:45:42.775Z,102308.00
2023-04-16T08:48:12.917Z,102315.00
2023-04-16T08:50:41.232Z,102301.00
2023-04-16T08:53:11.345Z,102314.00
2023-04-16T08:55:48.132Z,102319.00
2023-04-16T08:58:22.811Z,102308.00
2023-04-16T09:00:53.138Z,102318.00
2023-04-16T09:03:21.709Z,102314.00
2023-04-16T09:05:51.177Z,102326.00
2023-04-16T09:08:18.992Z,102323.00
2023-04-16T09:10:46.150Z,102313.00
2023-04-16T09:13:15.826Z,102309.00
2023-04-16T09:15:43.301Z,102314.00
2023-04-16T09:18:12.053Z,102317.00
2023-04-16T09:20:39.834Z,102328.00
2023-04-16T09:23:06.918Z,102316.00
2023-04-16T09:25:38.596Z,102335.00
2023-04-16T09:28:05.760Z,102327.00
2023-04-16T09:30:42.526Z,102317.00
2023-04-16T09:33:23.331Z,102335.00
2023-04-16T09:35:52.032Z,102311.00
2023-04-16T09:38:20.792Z,102328.00
2023-04-16T09:40:48.222Z,102325.00
2023-04-16T09:43:19.178Z,102335.00
2023-04-16T09:45:53.439Z,102338.00
2023-04-16T09:48:34.212Z,102339.00
2023-04-16T09:51:02.903Z,102334.00
2023-04-16T09:53:31.609Z,102351.00
2023-04-16T09:56:00.244Z,102333.00
2023-04-16T09:58:27.801Z,102334.00
2023-04-16T10:01:03.362Z,102336.00
2023-04-16T10:03:35.209Z,102321.00
2023-04-16T10:06:16.049Z,102339.00
2023-04-16T10:08:44.318Z,102341.00
2023-04-16T10:11:11.410Z,102332.00
2023-04-16T10:13:38.494Z,102340.00
2023-04-16T10:16:07.037Z,102353.00
2023-04-16T10:18:40.426Z,102340.00
2023-04-16T10:21:08.280Z,102348.00
2023-04-16T10:23:35.400Z,102333.00
2023-04-16T10:26:02.501Z,102353.00
2023-04-16T10:28:31.040Z,102336.00
2023-04-16T10:30:58.691Z,102352.00
2023-04-16T10:33:29.632Z,102346.00
2023-04-16T10:36:31.078Z,102361.00
2023-04-16T10:39:01.667Z,102352.00
2023-04-16T10:41:29.030Z,102339.00
2023-04-16T10:44:10.053Z,102339.00
2023-04-16T10:46:41.803Z,102355.00
2023-04-16T10:49:19.375Z,102353.00
2023-04-16T10:52:00.189Z,102340.00
2023-04-16T10:54:31.652Z,102347.00
2023-04-16T10:57:01.625Z,102357.00
2023-04-16T10:59:40.386Z,102347.00
2023-04-16T11:02:09.748Z,102347.00
2023-04-16T11:04:38.633Z,102355.00
2023-04-16T11:07:14.992Z,102359.00
2023-04-16T11:09:54.047Z,102360.00
2023-04-16T11:12:27.190Z,102338.00
2023-04-16T11:15:01.394Z,102369.00
2023-04-16T11:17:33.437Z,102355.00
2023-04-16T11:20:02.929Z,102357.00
2023-04-16T11:22:31.354Z,102350.00
2023-04-16T11:24:58.372Z,102344.00
2023-04-16T11:27:30.871Z,102359.00
2023-04-16T11:30:17.684Z,102356.00
2023-04-16T11:32:45.674Z,102365.00
2023-04-16T11:35:17.660Z,102342.00
2023-04-16T11:37:44.994Z,102346.00
2023-04-16T11:40:12.692Z,102337.00
2023-04-16T11:42:41.596Z,102359.00
2023-04-16T11:45:10.429Z,102346.00
2023-04-16T11:47:46.109Z,102358.00
2023-04-16T11:50:30.997Z,102359.00
2023-04-16T11:53:04.850Z,102345.00
2023-04-16T11:55:31.873Z,102344.00
2023-04-16T11:58:11.713Z,102358.00
2023-04-16T12:00:39.212Z,102332.00
2023-04-16T12:03:06.603Z,102349.00
2023-04-16T12:05:39.040Z,102359.00
2023-04-16T12:08:11.422Z,102359.00
2023-04-16T12:10:53.764Z,102352.00
2023-04-16T12:13:23.024Z,102359.00
2023-04-16T12:15:54.932Z,102359.00
2023-04-16T12:18:24.302Z,102356.00
2023-04-16T12:20:52.397Z,102372.00
2023-04-16T12:23:27.164Z,102371.00
2023-04-16T12:25:55.221Z,102353.00
2023-04-16T12:28:29.228Z,102384.00
2023-04-16T12:30:56.991Z,102352.00
2023-04-16T12:33:24.539Z,102387.00
2023-04-16T12:35:52.101Z,102367.00
2023-04-16T12:38:23.607Z,102383.00
2023-04-16T12:40:52.111Z,102373.00
2023-04-16T12:43:24.267Z,102369.00
2023-04-16T12:45:53.347Z,102372.00
2023-04-16T12:48:20.819Z,102367.00
2023-04-16T12:50:48.511Z,102383.00
2023-04-16T12:53:15.980Z,102395.00
2023-04-16T12:55:43.036Z,102381.00
2023-04-16T12:58:12.453Z,102391.00
2023-04-16T13:00:40.514Z,102390.00
2023-04-16T13:03:08.501Z,102391.00
2023-04-16T13:05:36.760Z,102405.00
2023-04-16T13:08:06.630Z,102374.00
2023-04-16T13:10:33.645Z,102393.00
2023-04-16T13:13:00.979Z,102408.00
2023-04-16T13:15:30.873Z,102403.00
2023-04-16T13:17:59.300Z,102390.00
2023-04-16T13:20:26.580Z,102387.00
2023-04-16T13:22:54.364Z,102410.00
2023-04-16T13:25:24.366Z,102376.00
2023-04-16T13:27:51.519Z,102376.00
2023-04-16T13:30:20.989Z,102391.00
2023-04-16T13:32:48.136Z,102395.00
2023-04-16T13:35:17.090Z,102381.00
2023-04-16T13:37:44.408Z,102389.00
2023-04-16T13:40:11.589Z,102390.00
2023-04-16T13:42:40.599Z,102366.00
2023-04-16T13:45:13.527Z,102363.00
2023-04-16T13:47:42.508Z,102369.00
2023-04-16T13:50:10.618Z,102381.00
2023-04-16T13:52:38.254Z,102364.00
2023-04-16T13:55:06.839Z,102360.00
2023-04-16T13:57:33.864Z,102352.00
2023-04-16T14:00:03.585Z,102368.00
2023-04-16T14:02:30.860Z,102383.00
2023-04-16T14:04:57.957Z,102375.00
2023-04-16T14:07:27.384Z,102355.00
2023-04-16T14:09:54.446Z,102384.00
2023-04-16T14:12:21.568Z,102375.00
2023-04-16T14:14:49.365Z,102366.00
2023-04-16T14:17:16.938Z,102394.00
2023-04-16T14:19:43.987Z,102388.00
2023-04-16T14:22:11.217Z,102389.00
2023-04-16T14:24:40.573Z,102373.00
2023-04-16T14:27:08.590Z,102362.00
2023-04-16T14:29:36.479Z,102374.00
2023-04-16T14:32:03.786Z,102374.00
2023-04-16T14:34:31.119Z,102372.00
2023-04-16T14:36:58.611Z,102374.00
2023-04-16T14:39:25.953Z,102358.00
2023-04-16T14:41:54.569Z,102368.00
2023-04-16T14:44:22.727Z,102373.00
2023-04-16T14:46:51.777Z,102364.00
2023-04-16T14:49:19.242Z,102361.00
2023-04-16T14:51:47.494Z,102362.00
2023-04-16T14:54:15.020Z,102351.00
2023-04-16T14:56:42.866Z,102362.00
2023-04-16T14:59:13.113Z,102362.00
2023-04-16T15:01:41.112Z,102344.00
2023-04-16T15:04:10.405Z,102367.00
2023-04-16T15:06:38.448Z,102383.00
2023-04-16T15:09:07.038Z,102352.00
2023-04-16T15:11:34.177Z,102356.00
2023-04-16T15:14:01.653Z,102374.00
2023-04-16T15:16:30.687Z,102353.00
2023-04-16T15:18:58.459Z,102365.00
2023-04-16T15:21:26.799Z,102352.00
2023-04-16T15:23:54.042Z,102360.00
2023-04-16T15:26:21.107Z,102375.00
2023-04-16T15:28:50.103Z,102372.00
2023-04-16T15:31:22.373Z,102371.00
2023-04-16T15:33:50.617Z,102383.00
2023-04-16T15:36:19.883Z,102347.00
2023-04-16T15:38:47.357Z,102375.00
2023-04-16T15:41:15.022Z,102358.00
2023-04-16T15:43:42.374Z,102342.00
2023-04-16T15:46:10.210Z,102354.00
2023-04-16T15:48:49.106Z,102372.00
2023-04-16T15:51:16.437Z,102366.00
2023-04-16T15:53:45.359Z,102367.00
2023-04-16T15:56:12.402Z,102378.00
2023-04-16T15:58:39.717Z,102367.00
2023-04-16T16:01:07.064Z,102389.00
2023-04-16T16:03:36.203Z,102372.00
2023-04-16T16:06:07.748Z,102364.00
2023-04-16T16:08:39.726Z,102367.00
2023-04-16T16:11:07.425Z,102381.00
2023-04-16T16:13:35.902Z,102362.00
2023-04-16T16:16:06.644Z,102382.00
2023-04-16T16:18:35.542Z,102361.00
2023-04-16T16:21:02.691Z,102390.00
2023-04-16T16:23:29.736Z,102383.00
2023-04-16T16:25:57.503Z,102377.00
2023-04-16T16:28:25.571Z,102397.00
2023-04-16T16:30:55.660Z,102408.00
2023-04-16T16:33:24.654Z,102363.00
2023-04-16T16:35:51.920Z,102394.00
2023-04-16T16:38:19.187Z,102394.00
2023-04-16T16:40:47.132Z,102360.00
2023-04-16T16:43:14.468Z,102388.00
2023-04-16T16:45:44.165Z,102396.00
2023-04-16T16:48:11.369Z,102409.00
2023-04-16T16:50:38.546Z,102367.00
2023-04-16T16:53:08.923Z,102365.00
2023-04-16T16:55:36.381Z,102374.00
2023-04-16T16:58:03.593Z,102382.00
2023-04-16T17:00:30.589Z,102400.00
2023-04-16T17:03:00.554Z,102381.00
2023-04-16T17:05:31.181Z,102402.00
2023-04-16T17:07:58.679Z,102376.00
2023-04-16T17:10:27.343Z,102400.00
2023-04-16T17:12:55.036Z,102388.00
2023-04-16T17:15:22.152Z,102392.00
2023-04-16T17:17:49.259Z,102395.00
2023-04-16T17:20:17.329Z,102398.00
2023-04-16T17:22:44.752Z,102400.00
2023-04-16T17:25:13.761Z,102392.00
2023-04-16T17:27:41.630Z,102387.00
2023-04-16T17:30:10.181Z,102394.00
2023-04-16T17:32:37.455Z,102392.00
2023-04-16T17:35:07.106Z,102395.00
2023-04-16T17:37:35.298Z,102372.00
2023-04-16T17:40:07.740Z,102405.00
2023-04-16T17:42:35.492Z,102408.00
2023-04-16T17:45:05.369Z,102412.00
2023-04-16T17:47:40.043Z,102424.00
2023-04-16T17:50:09.293Z,102423.00
2023-04-16T17:52:40.436Z,102418.00
2023-04-16T17:55:11.967Z,102427.00
2023-04-16T17:57:40.337Z,102422.00
2023-04-16T18:00:16.208Z,102424.00
2023-04-16T18:02:44.000Z,102426.00
2023-04-16T18:05:12.382Z,102437.00
2023-04-16T18:07:39.471Z,102399.00
2023-04-16T18:10:07.375Z,102431.00
2023-04-16T18:12:34.624Z,102446.00
2023-04-16T18:15:02.273Z,102434.00
2023-04-16T18:17:30.337Z,102439.00
2023-04-16T18:19:57.639Z,102441.00
2023-04-16T18:22:27.041Z,102440.00
2023-04-16T18:24:58.128Z,102426.00
2023-04-16T18:27:25.319Z,102447.00
2023-04-16T18:29:55.430Z,102429.00
2023-04-16T18:32:30.864Z,102454.00
2023-04-16T18:35:01.213Z,102455.00
2023-04-16T18:37:32.796Z,102448.00
2023-04-16T18:40:00.497Z,102458.00
2023-04-16T18:42:30.798Z,102460.00
2023-04-16T18:47:26.520Z,102438.00
2023-04-16T18:49:53.871Z,102459.00
2023-04-16T18:52:21.028Z,102440.00
2023-04-16T18:54:51.256Z,102467.00
2023-04-16T18:57:20.678Z,102442.00
2023-04-16T18:59:48.258Z,102459.00
2023-04-16T19:02:15.758Z,102471.00
2023-04-16T19:04:43.021Z,102479.00
2023-04-16T19:07:11.916Z,102460.00
2023-04-16T19:09:39.174Z,102475.00
2023-04-16T19:12:06.487Z,102470.00
2023-04-16T19:14:34.568Z,102479.00
2023-04-16T19:17:01.598Z,102473.00
2023-04-16T19:19:29.134Z,102463.00
2023-04-16T19:21:56.679Z,102486.00
2023-04-16T19:24:23.816Z,102498.00
2023-04-16T19:26:52.298Z,102487.00
2023-04-16T19:29:19.710Z,102496.00
2023-04-16T19:31:47.367Z,102495.00
2023-04-16T19:34:17.206Z,102483.00
2023-04-16T19:36:53.055Z,102502.00
2023-04-16T19:39:20.674Z,102485.00
2023-04-16T19:41:49.413Z,102505.00
2023-04-16T19:44:17.195Z,102482.00
2023-04-16T19:46:44.646Z,102522.00
2023-04-16T19:49:12.087Z,102509.00
2023-04-16T19:51:39.724Z,102511.00
2023-04-16T19:54:07.347Z,102505.00
2023-04-16T19:56:34.642Z,102514.00
2023-04-16T19:59:02.721Z,102515.00
2023-04-16T20:01:33.146Z,102515.00
2023-04-16T20:04:00.792Z,102516.00
2023-04-16T20:06:30.926Z,102502.00
2023-04-16T20:08:58.525Z,102524.00
2023-04-16T20:11:25.597Z,102506.00
2023-04-16T20:13:53.084Z,102515.00
2023-04-16T20:16:23.500Z,102519.00
2023-04-16T20:18:54.474Z,102504.00
2023-04-16T20:21:23.216Z,102516.00
2023-04-16T20:23:50.771Z,102529.00
2023-04-16T20:26:18.520Z,102528.00
2023-04-16T20:28:46.142Z,102506.00
2023-04-16T20:31:14.334Z,102521.00
2023-04-16T20:33:41.949Z,102526.00
2023-04-16T20:36:12.191Z,102528.00
2023-04-16T20:38:39.828Z,102536.00
2023-04-16T20:41:10.409Z,102532.00
2023-04-16T20:43:42.070Z,102534.00
2023-04-16T20:46:10.145Z,102509.00
2023-04-16T20:48:38.686Z,102526.00
2023-04-16T20:51:08.002Z,102524.00
2023-04-16T20:53:40.122Z,102516.00
2023-04-16T20:56:09.226Z,102527.00
2023-04-16T20:58:36.634Z,102524.00
2023-04-16T21:01:06.020Z,102498.00
2023-04-16T21:03:33.866Z,102519.00
2023-04-16T21:06:01.940Z,102519.00
2023-04-16T21:08:30.414Z,102512.00
2023-04-16T21:10:57.948Z,102500.00
2023-04-16T21:13:25.636Z,102485.00
2023-04-16T21:15:52.951Z,102507.00
2023-04-16T21:18:20.122Z,102527.00
2023-04-16T21:20:47.235Z,102520.00
2023-04-16T21:23:14.361Z,102492.00
2023-04-16T21:25:41.648Z,102532.00
2023-04-16T21:28:09.357Z,102511.00
2023-04-16T21:30:37.180Z,102519.00
2023-04-16T21:33:05.083Z,102521.00
2023-04-16T21:35:33.535Z,102503.00
2023-04-16T21:38:01.818Z,102498.00
2023-04-16T21:40:30.250Z,102497.00
2023-04-16T21:42:58.772Z,102515.00
2023-04-16T21:45:26.286Z,102514.00
2023-04-16T21:47:54.340Z,102524.00
2023-04-16T21:50:21.429Z,102528.00
2023-04-16T21:52:49.405Z,102497.00
2023-04-16T21:55:16.893Z,102511.00
2023-04-16T21:57:46.093Z,102526.00
2023-04-16T22:00:15.194Z,102534.00
2023-04-16T22:02:43.680Z,102515.00
2023-04-16T22:05:12.513Z,102513.00
2023-04-16T22:07:39.755Z,102509.00
2023-04-16T22:10:08.809Z,102507.00
2023-04-16T22:12:39.496Z,102499.00
2023-04-16T22:15:07.296Z,102515.00
2023-04-16T22:17:34.437Z,102531.00
2023-04-16T22:20:12.847Z,102515.00
2023-04-16T22:22:43.507Z,102516.00
2023-04-16T22:25:12.081Z,102491.00
2023-04-16T22:27:39.636Z,102512.00
2023-04-16T22:30:08.245Z,102498.00
2023-04-16T22:32:35.448Z,102520.00
2023-04-16T22:35:04.743Z,102517.00
2023-04-16T22:37:32.484Z,102510.00
2023-04-16T22:39:59.809Z,102514.00
2023-04-16T22:42:27.672Z,102512.00
2023-04-16T22:44:55.572Z,102514.00
2023-04-16T22:47:22.919Z,102514.00
2023-04-16T22:49:50.236Z,102519.00
2023-04-16T22:52:17.494Z,102522.00
2023-04-16T22:54:44.908Z,102525.00
2023-04-16T22:57:12.051Z,102523.00
2023-04-16T22:59:39.540Z,102522.00
2023-04-16T23:02:06.833Z,102517.00
2023-04-16T23:04:33.979Z,102510.00
2023-04-16T23:07:01.512Z,102518.00
2023-04-16T23:09:30.041Z,102507.00
2023-04-16T23:11:58.469Z,102516.00
2023-04-16T23:14:26.502Z,102516.00
2023-04-16T23:16:53.915Z,102516.00
2023-04-16T23:19:21.654Z,102512.00
2023-04-16T23:21:49.039Z,102511.00
2023-04-16T23:24:17.135Z,102520.00
2023-04-16T23:26:44.761Z,102516.00
2023-04-16T23:29:11.998Z,102507.00
2023-04-16T23:31:39.404Z,102511.00
2023-04-16T23:34:06.679Z,102515.00
2023-04-16T23:36:33.765Z,102511.00
2023-04-16T23:39:01.577Z,102519.00
2023-04-16T23:41:28.944Z,102529.00
2023-04-16T23:43:56.726Z,102518.00
2023-04-16T23:46:24.279Z,102485.00
2023-04-16T23:48:52.885Z,102513.00
2023-04-16T23:51:19.928Z,102513.00
2023-04-16T23:53:47.484Z,102540.00
2023-04-16T23:56:15.397Z,102528.00
2023-04-16T23:58:43.178Z,102514.00
